Terminal Aerodrome Forecast
Issued by NWS Dodge City, KS

Home | Current Version | Previous Version | Graphics & Text | Print | Product List | Glossary Off
Versions: 1 2 3 4 5 6 7 8 9 10 11 12 13 14 15 16 17 18 19 20 21 22 23 24 25 26

179
FTUS43 KDDC 211120
TAFDDC
TAF
KDDC 211120Z 2112/2212 19007KT P6SM SKC
     FM211400 19013KT P6SM FEW150
     FM220300 16009KT P6SM FEW140=

USA.gov is the U.S. government's official web portal to all federal, state and local government web resources and services.